createdAt,value
2022-09-23T00:01:59.543Z,1.00
2022-09-23T00:04:29.379Z,1.38
2022-09-23T00:06:55.683Z,1.45
2022-09-23T00:09:22.092Z,0.88
2022-09-23T00:11:48.415Z,0.77
2022-09-23T00:14:14.894Z,1.25
2022-09-23T00:16:41.533Z,1.73
2022-09-23T00:19:08.477Z,1.65
2022-09-23T00:21:35.124Z,1.33
2022-09-23T00:24:02.348Z,1.00
2022-09-23T00:26:28.729Z,1.10
2022-09-23T00:28:55.057Z,0.70
2022-09-23T00:31:25.882Z,0.75
2022-09-23T00:33:53.652Z,2.08
2022-09-23T00:36:20.040Z,0.80
2022-09-23T00:38:46.918Z,1.30
2022-09-23T00:41:15.978Z,0.80
2022-09-23T00:44:02.847Z,1.67
2022-09-23T00:46:37.017Z,0.50
2022-09-23T00:49:23.597Z,0.82
2022-09-23T00:51:54.104Z,2.53
2022-09-23T00:54:21.141Z,0.50
2022-09-23T00:56:47.621Z,1.27
2022-09-23T00:59:13.964Z,2.25
2022-09-23T01:01:40.758Z,0.82
2022-09-23T01:04:07.914Z,1.90
2022-09-23T01:06:34.264Z,1.15
2022-09-23T01:09:00.606Z,2.22
2022-09-23T01:11:40.179Z,0.60
2022-09-23T01:14:21.888Z,2.08
2022-09-23T01:16:55.608Z,1.17
2022-09-23T01:19:28.065Z,2.17
2022-09-23T01:22:02.889Z,2.22
2022-09-23T01:24:32.176Z,1.48
2022-09-23T01:26:58.601Z,1.73
2022-09-23T01:29:25.625Z,0.90
2022-09-23T01:32:08.672Z,1.45
2022-09-23T01:34:47.825Z,1.90
2022-09-23T01:37:18.346Z,0.93
2022-09-23T01:39:52.321Z,0.63
2022-09-23T01:42:26.380Z,0.90
2022-09-23T01:45:05.591Z,2.25
2022-09-23T01:47:41.931Z,1.63
2022-09-23T01:50:29.464Z,1.02
2022-09-23T01:52:58.045Z,1.70
2022-09-23T01:55:29.949Z,2.23
2022-09-23T01:57:56.403Z,0.55
2022-09-23T02:00:23.052Z,0.82
2022-09-23T02:02:56.319Z,0.90
2022-09-23T02:05:28.448Z,0.50
2022-09-23T02:07:58.007Z,0.70
2022-09-23T02:10:28.250Z,3.05
2022-09-23T02:12:57.622Z,1.00
2022-09-23T02:15:27.637Z,1.15
2022-09-23T02:18:14.199Z,1.52
2022-09-23T02:20:40.765Z,0.60
2022-09-23T02:23:13.048Z,0.60
2022-09-23T02:25:56.896Z,0.68
2022-09-23T02:28:29.314Z,2.38
2022-09-23T02:31:04.451Z,0.80
2022-09-23T02:33:35.570Z,1.85
2022-09-23T02:36:18.870Z,0.85
2022-09-23T02:38:51.131Z,1.17
2022-09-23T02:41:20.952Z,1.50
2022-09-23T02:43:53.839Z,0.90
2022-09-23T02:46:20.459Z,0.57
2022-09-23T02:48:52.295Z,0.90
2022-09-23T02:51:19.186Z,0.90
2022-09-23T02:53:48.552Z,2.33
2022-09-23T02:56:16.199Z,0.68
2022-09-23T02:58:42.907Z,1.02
2022-09-23T03:01:21.797Z,0.50
2022-09-23T03:03:48.124Z,0.80
2022-09-23T03:06:20.459Z,0.75
2022-09-23T03:08:50.489Z,1.30
2022-09-23T03:11:17.581Z,1.00
2022-09-23T03:13:56.055Z,0.70
2022-09-23T03:16:30.154Z,0.90
2022-09-23T03:19:14.975Z,0.70
2022-09-23T03:21:44.967Z,0.52
2022-09-23T03:24:14.307Z,1.55
2022-09-23T03:26:43.956Z,1.00
2022-09-23T03:29:11.437Z,1.17
2022-09-23T03:31:40.094Z,0.98
2022-09-23T03:34:10.079Z,0.80
2022-09-23T03:36:53.698Z,1.13
2022-09-23T03:39:35.419Z,2.22
2022-09-23T03:42:05.255Z,1.13
2022-09-23T03:44:36.608Z,1.20
2022-09-23T03:47:03.734Z,9.70
2022-09-23T03:49:33.385Z,1.58
2022-09-23T03:52:00.183Z,1.20
2022-09-23T03:54:29.718Z,2.33
2022-09-23T03:56:59.536Z,1.15
2022-09-23T03:59:26.830Z,1.10
2022-09-23T04:01:53.688Z,2.25
2022-09-23T04:04:20.085Z,2.15
2022-09-23T04:06:46.905Z,1.20
2022-09-23T04:09:13.243Z,0.60
2022-09-23T04:11:39.626Z,1.48
2022-09-23T04:14:06.086Z,1.00
2022-09-23T04:16:32.476Z,0.68
2022-09-23T04:18:58.937Z,1.58
2022-09-23T04:21:25.411Z,1.23
2022-09-23T04:23:51.726Z,1.63
2022-09-23T04:26:19.096Z,1.75
2022-09-23T04:28:45.454Z,1.55
2022-09-23T04:31:11.874Z,4.60
2022-09-23T04:33:38.208Z,2.20
2022-09-23T04:36:04.970Z,0.80
2022-09-23T04:38:31.472Z,0.93
2022-09-23T04:40:57.784Z,2.30
2022-09-23T04:43:24.305Z,1.70
2022-09-23T04:45:58.171Z,0.82
2022-09-23T04:48:24.848Z,1.35
2022-09-23T04:50:51.284Z,1.77
2022-09-23T04:53:19.044Z,1.20
2022-09-23T04:55:45.546Z,3.35
2022-09-23T04:58:12.033Z,1.00
2022-09-23T05:00:38.473Z,0.75
2022-09-23T05:03:07.393Z,1.33
2022-09-23T05:05:34.312Z,2.65
2022-09-23T05:08:00.711Z,1.52
2022-09-23T05:10:28.509Z,2.30
2022-09-23T05:12:57.184Z,4.32
2022-09-23T05:15:23.827Z,1.00
2022-09-23T05:17:50.374Z,1.48
2022-09-23T05:20:17.172Z,1.67
2022-09-23T05:22:43.502Z,1.45
2022-09-23T05:25:09.886Z,0.95
2022-09-23T05:27:36.685Z,1.73
2022-09-23T05:30:03.142Z,1.83
2022-09-23T05:32:29.846Z,2.53
2022-09-23T05:34:58.872Z,0.65
2022-09-23T05:37:25.356Z,1.65
2022-09-23T05:39:51.680Z,2.15
2022-09-23T05:42:18.260Z,3.45
2022-09-23T05:44:44.719Z,1.63
2022-09-23T05:47:11.178Z,1.60
2022-09-23T05:49:58.002Z,1.23
2022-09-23T05:52:25.658Z,1.58
2022-09-23T05:54:51.980Z,1.17
2022-09-23T05:57:18.997Z,1.83
2022-09-23T05:59:47.762Z,1.40
2022-09-23T06:02:15.107Z,1.77
2022-09-23T06:04:41.665Z,1.88
2022-09-23T06:07:08.663Z,2.22
2022-09-23T06:09:36.737Z,1.27
2022-09-23T06:12:03.544Z,0.98
2022-09-23T06:14:30.220Z,0.75
2022-09-23T06:16:56.523Z,1.23
2022-09-23T06:19:22.838Z,2.17
2022-09-23T06:21:49.451Z,2.88
2022-09-23T06:24:19.745Z,7.88
2022-09-23T06:26:48.130Z,12.82
2022-09-23T06:29:14.654Z,21.23
2022-09-23T06:31:41.557Z,25.67
2022-09-23T06:34:12.727Z,17.55
2022-09-23T06:36:44.504Z,9.10
2022-09-23T06:39:11.653Z,10.93
2022-09-23T06:41:39.239Z,52.85
2022-09-23T06:44:05.782Z,39.88
2022-09-23T06:46:32.304Z,23.15
2022-09-23T06:48:59.305Z,14.45
2022-09-23T06:51:25.700Z,6.63
2022-09-23T06:53:52.504Z,4.53
2022-09-23T06:56:21.043Z,4.80
2022-09-23T06:58:47.414Z,2.93
2022-09-23T07:01:16.682Z,1.50
2022-09-23T07:06:09.422Z,3.70
2022-09-23T07:08:35.916Z,2.80
2022-09-23T07:11:03.871Z,3.00
2022-09-23T07:13:30.830Z,4.10
2022-09-23T07:16:01.968Z,2.30
2022-09-23T07:18:36.194Z,5.18
2022-09-23T07:21:11.459Z,4.03
2022-09-23T07:23:38.158Z,2.95
2022-09-23T07:26:05.181Z,3.83
2022-09-23T07:28:32.183Z,6.75
2022-09-23T07:31:02.606Z,12.65
2022-09-23T07:33:33.390Z,11.15
2022-09-23T07:36:04.672Z,9.63
2022-09-23T07:38:31.431Z,5.70
2022-09-23T07:41:02.012Z,4.22
2022-09-23T07:43:31.954Z,2.60
2022-09-23T07:45:59.532Z,2.38
2022-09-23T07:48:29.615Z,2.60
2022-09-23T07:51:00.203Z,2.40
2022-09-23T07:53:27.139Z,1.02
2022-09-23T07:55:57.774Z,4.45
2022-09-23T07:58:24.906Z,1.08
2022-09-23T08:00:53.642Z,3.20
2022-09-23T08:03:20.244Z,1.10
2022-09-23T08:05:46.632Z,2.08
2022-09-23T08:08:17.153Z,2.67
2022-09-23T08:10:43.497Z,2.60
2022-09-23T08:13:09.893Z,4.05
2022-09-23T08:15:36.282Z,1.67
2022-09-23T08:18:02.671Z,1.88
2022-09-23T08:20:47.088Z,3.25
2022-09-23T08:23:14.774Z,1.60
2022-09-23T08:25:44.969Z,1.55
2022-09-23T08:28:16.073Z,2.40
2022-09-23T08:30:43.974Z,2.65
2022-09-23T08:33:11.626Z,3.15
2022-09-23T08:35:38.024Z,1.02
2022-09-23T08:38:04.550Z,3.50
2022-09-23T08:40:36.358Z,2.42
2022-09-23T08:43:02.936Z,2.35
2022-09-23T08:45:29.316Z,2.08
2022-09-23T08:48:01.856Z,1.92
2022-09-23T08:50:48.573Z,1.70
2022-09-23T08:53:24.495Z,3.13
2022-09-23T08:55:53.473Z,1.30
2022-09-23T08:58:29.324Z,1.95
2022-09-23T09:01:14.230Z,2.63
2022-09-23T09:03:44.893Z,1.67
2022-09-23T09:06:15.736Z,0.95
2022-09-23T09:08:44.507Z,1.23
2022-09-23T09:11:13.304Z,2.65
2022-09-23T09:13:48.542Z,1.02
2022-09-23T09:16:14.930Z,1.60
2022-09-23T09:18:52.000Z,1.27
2022-09-23T09:21:18.385Z,2.65
2022-09-23T09:23:54.885Z,1.27
2022-09-23T09:26:26.964Z,1.30
2022-09-23T09:29:34.245Z,1.20
2022-09-23T09:32:07.927Z,2.55
2022-09-23T09:34:43.420Z,0.90
2022-09-23T09:37:20.643Z,1.30
2022-09-23T09:39:47.072Z,1.98
2022-09-23T09:42:33.924Z,1.20
2022-09-23T09:45:01.793Z,3.75
2022-09-23T09:47:28.730Z,1.65
2022-09-23T09:50:04.308Z,2.55
2022-09-23T09:52:31.852Z,0.90
2022-09-23T09:55:13.169Z,0.65
2022-09-23T09:57:52.111Z,1.10
2022-09-23T10:02:46.550Z,1.20
2022-09-23T10:05:25.717Z,1.20
2022-09-23T10:07:52.098Z,1.00
2022-09-23T10:10:32.398Z,0.70
2022-09-23T10:13:13.398Z,0.85
2022-09-23T10:15:44.882Z,0.75
2022-09-23T10:18:23.018Z,1.23
2022-09-23T10:20:49.627Z,0.70
2022-09-23T10:23:19.671Z,1.52
2022-09-23T10:25:55.378Z,0.77
2022-09-23T10:28:32.416Z,3.33
2022-09-23T10:31:10.091Z,0.57
2022-09-23T10:33:40.745Z,0.43
2022-09-23T10:36:10.678Z,1.10
2022-09-23T10:38:37.144Z,0.60
2022-09-23T10:41:22.497Z,2.25
2022-09-23T10:44:06.945Z,1.00
2022-09-23T10:46:42.684Z,1.02
2022-09-23T10:49:24.692Z,2.78
2022-09-23T10:51:51.259Z,1.30
2022-09-23T10:54:18.439Z,1.45
2022-09-23T10:56:49.314Z,1.40
2022-09-23T10:59:30.633Z,0.60
2022-09-23T11:02:02.439Z,1.00
2022-09-23T11:04:32.331Z,2.13
2022-09-23T11:07:14.111Z,2.13
2022-09-23T11:09:41.381Z,1.98
2022-09-23T11:12:26.007Z,0.55
2022-09-23T11:15:11.057Z,3.42
2022-09-23T11:17:47.893Z,2.40
2022-09-23T11:20:17.888Z,1.05
2022-09-23T11:23:07.691Z,2.65
2022-09-23T11:25:40.270Z,9.73
2022-09-23T11:28:17.680Z,1.40
2022-09-23T11:30:57.301Z,0.52
2022-09-23T11:33:32.758Z,0.50
2022-09-23T11:36:01.011Z,1.27
2022-09-23T11:38:42.641Z,1.13
2022-09-23T11:41:21.888Z,1.50
2022-09-23T11:43:52.327Z,0.80
2022-09-23T11:46:32.658Z,2.47
2022-09-23T11:49:03.297Z,1.27
2022-09-23T11:51:32.051Z,2.28
2022-09-23T11:54:09.916Z,1.65
2022-09-23T11:56:49.217Z,1.00
2022-09-23T11:59:35.780Z,0.50
2022-09-23T12:02:19.663Z,0.73
2022-09-23T12:04:57.799Z,0.65
2022-09-23T12:07:29.087Z,0.65
2022-09-23T12:09:58.506Z,0.90
2022-09-23T12:12:47.711Z,2.50
2022-09-23T12:15:17.404Z,0.95
2022-09-23T12:18:02.686Z,2.83
2022-09-23T12:20:35.161Z,1.73
2022-09-23T12:23:07.369Z,0.98
2022-09-23T12:25:54.931Z,1.30
2022-09-23T12:28:26.858Z,1.60
2022-09-23T12:30:54.551Z,0.85
2022-09-23T12:33:28.777Z,1.83
2022-09-23T12:35:56.456Z,1.05
2022-09-23T12:38:25.537Z,3.53
2022-09-23T12:40:53.407Z,1.90
2022-09-23T12:43:27.304Z,3.93
2022-09-23T12:45:53.701Z,1.15
2022-09-23T12:48:20.059Z,1.33
2022-09-23T12:50:46.526Z,2.88
2022-09-23T12:53:33.154Z,1.65
2022-09-23T12:56:14.925Z,1.65
2022-09-23T12:58:43.985Z,1.88
2022-09-23T13:01:24.157Z,3.08
2022-09-23T13:04:16.898Z,0.85
2022-09-23T13:06:56.549Z,0.90
2022-09-23T13:09:25.764Z,2.15
2022-09-23T13:11:53.196Z,2.72
2022-09-23T13:14:26.776Z,3.03
2022-09-23T13:16:54.155Z,1.08
2022-09-23T13:19:26.945Z,2.05
2022-09-23T13:21:53.256Z,1.60
2022-09-23T13:24:19.639Z,2.38
2022-09-23T13:26:47.801Z,0.63
2022-09-23T13:29:17.879Z,1.38
2022-09-23T13:31:45.508Z,2.08
2022-09-23T13:34:13.735Z,1.27
2022-09-23T13:36:43.918Z,3.35
2022-09-23T13:39:22.236Z,0.82
2022-09-23T13:41:48.857Z,0.82
2022-09-23T13:44:20.069Z,1.02
2022-09-23T13:46:48.207Z,0.90
2022-09-23T13:49:22.015Z,1.00
2022-09-23T13:51:48.497Z,1.02
2022-09-23T13:54:31.132Z,2.38
2022-09-23T13:56:57.994Z,1.88
2022-09-23T13:59:24.633Z,1.55
2022-09-23T14:01:51.303Z,0.93
2022-09-23T14:04:24.786Z,2.85
2022-09-23T14:06:51.439Z,1.25
2022-09-23T14:09:18.517Z,0.60
2022-09-23T14:11:44.981Z,1.20
2022-09-23T14:14:13.144Z,3.70
2022-09-23T14:16:40.534Z,0.90
2022-09-23T14:19:11.437Z,0.93
2022-09-23T14:21:38.842Z,0.73
2022-09-23T14:24:10.940Z,1.15
2022-09-23T14:26:37.979Z,1.45
2022-09-23T14:29:04.450Z,1.42
2022-09-23T14:31:30.935Z,1.05
2022-09-23T14:33:57.851Z,1.80
2022-09-23T14:36:43.467Z,1.92
2022-09-23T14:39:11.135Z,1.13
2022-09-23T14:41:39.120Z,1.95
2022-09-23T14:44:06.873Z,1.02
2022-09-23T14:46:37.876Z,0.75
2022-09-23T14:49:14.694Z,2.30
2022-09-23T14:51:43.825Z,0.45
2022-09-23T14:56:41.381Z,0.80
2022-09-23T14:59:24.392Z,0.88
2022-09-23T15:01:50.722Z,1.10
2022-09-23T15:04:17.290Z,1.88
2022-09-23T15:06:49.835Z,0.63
2022-09-23T15:09:26.612Z,1.33
2022-09-23T15:11:56.119Z,1.75
2022-09-23T15:14:38.246Z,1.42
2022-09-23T15:17:11.699Z,1.98
2022-09-23T15:19:38.718Z,0.50
2022-09-23T15:22:07.379Z,1.13
2022-09-23T15:24:53.341Z,1.50
2022-09-23T15:27:33.309Z,2.50
2022-09-23T15:30:16.233Z,0.90
2022-09-23T15:32:46.087Z,0.75
2022-09-23T15:35:16.511Z,1.02
2022-09-23T15:37:44.427Z,2.17
2022-09-23T15:40:15.893Z,1.25
2022-09-23T15:42:45.562Z,0.90
2022-09-23T15:45:12.196Z,1.02
2022-09-23T15:47:38.547Z,0.88
2022-09-23T15:50:06.489Z,0.80
2022-09-23T15:52:32.792Z,1.35
2022-09-23T15:54:59.112Z,0.90
2022-09-23T15:57:26.323Z,1.17
2022-09-23T15:59:52.932Z,1.08
2022-09-23T16:02:21.343Z,1.05
2022-09-23T16:04:50.277Z,1.53
2022-09-23T16:07:17.032Z,2.05
2022-09-23T16:09:43.353Z,0.70
2022-09-23T16:12:11.735Z,0.80
2022-09-23T16:14:38.035Z,0.90
2022-09-23T16:17:05.065Z,1.00
2022-09-23T16:19:34.148Z,2.35
2022-09-23T16:22:00.527Z,2.75
2022-09-23T16:24:28.309Z,0.90
2022-09-23T16:26:59.833Z,2.90
2022-09-23T16:29:27.431Z,1.63
2022-09-23T16:31:54.131Z,0.95
2022-09-23T16:34:20.662Z,1.00
2022-09-23T16:36:47.095Z,2.22
2022-09-23T16:39:13.918Z,1.85
2022-09-23T16:41:40.445Z,1.25
2022-09-23T16:44:09.274Z,1.25
2022-09-23T16:46:35.650Z,1.05
2022-09-23T16:49:02.034Z,1.13
2022-09-23T16:51:29.475Z,1.15
2022-09-23T16:53:56.759Z,2.55
2022-09-23T16:56:28.678Z,0.82
2022-09-23T16:58:58.405Z,0.85
2022-09-23T17:04:10.651Z,1.83
2022-09-23T17:06:42.225Z,1.27
2022-09-23T17:09:09.507Z,2.00
2022-09-23T17:11:37.933Z,0.80
2022-09-23T17:14:05.115Z,3.30
2022-09-23T17:16:33.089Z,3.85
2022-09-23T17:18:59.990Z,4.35
2022-09-23T17:21:27.265Z,1.70
2022-09-23T17:23:55.694Z,2.05
2022-09-23T17:26:23.355Z,2.45
2022-09-23T17:28:51.266Z,0.95
2022-09-23T17:31:18.869Z,2.88
2022-09-23T17:33:45.613Z,2.28
2022-09-23T17:36:12.951Z,6.78
2022-09-23T17:38:39.398Z,2.15
2022-09-23T17:41:07.180Z,3.08
2022-09-23T17:43:33.734Z,2.60
2022-09-23T17:46:07.378Z,1.65
2022-09-23T17:48:37.485Z,1.30
2022-09-23T17:51:05.216Z,2.22
2022-09-23T17:53:32.802Z,2.35
2022-09-23T17:56:04.222Z,1.38
2022-09-23T17:58:32.119Z,1.17
2022-09-23T18:00:58.862Z,1.77
2022-09-23T18:03:26.215Z,2.38
2022-09-23T18:05:52.575Z,3.33
2022-09-23T18:08:19.005Z,2.75
2022-09-23T18:10:45.326Z,1.13
2022-09-23T18:13:11.665Z,2.60
2022-09-23T18:15:38.513Z,1.52
2022-09-23T18:18:05.664Z,2.17
2022-09-23T18:20:32.086Z,1.40
2022-09-23T18:22:58.869Z,2.10
2022-09-23T18:25:38.711Z,2.20
2022-09-23T18:28:06.094Z,0.77
2022-09-23T18:30:33.475Z,1.52
2022-09-23T18:33:00.006Z,1.52
2022-09-23T18:35:26.530Z,1.10
2022-09-23T18:37:52.935Z,1.42
2022-09-23T18:40:19.351Z,1.00
2022-09-23T18:42:45.745Z,1.02
2022-09-23T18:45:12.092Z,1.83
2022-09-23T18:48:00.075Z,1.75
2022-09-23T18:50:43.195Z,2.17
2022-09-23T18:53:10.049Z,1.55
2022-09-23T18:55:36.611Z,1.70
2022-09-23T18:58:03.207Z,0.90
2022-09-23T19:00:30.114Z,1.55
2022-09-23T19:02:56.555Z,1.52
2022-09-23T19:05:23.109Z,1.13
2022-09-23T19:07:49.731Z,1.58
2022-09-23T19:10:16.395Z,2.65
2022-09-23T19:12:42.714Z,2.97
2022-09-23T19:15:09.272Z,1.88
2022-09-23T19:17:35.600Z,1.42
2022-09-23T19:20:02.010Z,3.35
2022-09-23T19:22:30.414Z,1.33
2022-09-23T19:24:56.697Z,1.58
2022-09-23T19:27:23.477Z,1.20
2022-09-23T19:29:50.274Z,0.98
2022-09-23T19:32:16.951Z,1.88
2022-09-23T19:34:44.279Z,1.38
2022-09-23T19:37:10.625Z,1.83
2022-09-23T19:39:37.525Z,1.58
2022-09-23T19:42:03.991Z,3.67
2022-09-23T19:44:30.341Z,3.55
2022-09-23T19:46:57.448Z,1.65
2022-09-23T19:49:24.591Z,3.75
2022-09-23T19:51:51.318Z,1.63
2022-09-23T19:54:20.638Z,2.42
2022-09-23T19:56:48.632Z,1.60
2022-09-23T19:59:18.472Z,1.55
2022-09-23T20:01:45.621Z,1.58
2022-09-23T20:04:12.004Z,2.42
2022-09-23T20:06:38.855Z,2.20
2022-09-23T20:09:05.568Z,1.10
2022-09-23T20:11:32.445Z,1.50
2022-09-23T20:14:04.172Z,1.70
2022-09-23T20:16:32.466Z,1.73
2022-09-23T20:18:59.864Z,1.30
2022-09-23T20:21:27.059Z,1.38
2022-09-23T20:23:53.402Z,1.25
2022-09-23T20:26:38.486Z,1.80
2022-09-23T20:29:04.859Z,3.00
2022-09-23T20:31:32.159Z,1.23
2022-09-23T20:33:59.083Z,2.83
2022-09-23T20:36:26.345Z,2.10
2022-09-23T20:39:02.044Z,2.00
2022-09-23T20:41:29.779Z,1.42
2022-09-23T20:43:59.363Z,2.30
2022-09-23T20:46:26.160Z,1.20
2022-09-23T20:48:54.055Z,2.30
2022-09-23T20:51:20.491Z,1.33
2022-09-23T20:53:51.791Z,1.63
2022-09-23T20:56:19.762Z,2.55
2022-09-23T20:58:47.346Z,1.98
2022-09-23T21:01:14.588Z,1.02
2022-09-23T21:03:44.985Z,1.33
2022-09-23T21:06:13.977Z,2.17
2022-09-23T21:08:40.794Z,3.00
2022-09-23T21:11:09.253Z,1.42
2022-09-23T21:13:35.680Z,2.55
2022-09-23T21:16:03.052Z,1.48
2022-09-23T21:18:29.782Z,1.83
2022-09-23T21:20:59.718Z,1.48
2022-09-23T21:23:27.175Z,2.15
2022-09-23T21:25:59.570Z,1.48
2022-09-23T21:28:29.024Z,1.23
2022-09-23T21:33:21.759Z,2.08
2022-09-23T21:35:51.271Z,1.30
2022-09-23T21:38:17.582Z,1.92
2022-09-23T21:40:56.109Z,2.25
2022-09-23T21:43:23.545Z,2.63
2022-09-23T21:45:55.383Z,3.50
2022-09-23T21:48:21.690Z,3.30
2022-09-23T21:50:53.912Z,1.70
2022-09-23T21:53:20.245Z,1.67
2022-09-23T21:55:48.720Z,1.20
2022-09-23T21:58:15.080Z,1.57
2022-09-23T22:00:41.502Z,2.05
2022-09-23T22:03:08.250Z,2.28
2022-09-23T22:05:34.587Z,1.83
2022-09-23T22:08:01.049Z,2.00
2022-09-23T22:10:27.363Z,1.58
2022-09-23T22:12:53.674Z,2.15
2022-09-23T22:15:20.388Z,2.35
2022-09-23T22:17:48.046Z,1.95
2022-09-23T22:20:15.952Z,1.55
2022-09-23T22:22:42.398Z,2.00
2022-09-23T22:25:08.998Z,1.95
2022-09-23T22:27:55.328Z,1.95
2022-09-23T22:30:40.248Z,1.83
2022-09-23T22:33:07.036Z,2.03
2022-09-23T22:35:33.398Z,3.67
2022-09-23T22:38:01.025Z,1.30
2022-09-23T22:40:27.497Z,1.38
2022-09-23T22:42:54.251Z,2.13
2022-09-23T22:45:20.568Z,1.63
2022-09-23T22:47:46.970Z,1.33
2022-09-23T22:50:14.305Z,1.58
2022-09-23T22:52:41.113Z,2.00
2022-09-23T22:55:10.750Z,1.58
2022-09-23T22:57:37.438Z,3.33
2022-09-23T23:00:07.805Z,3.10
2022-09-23T23:02:34.173Z,4.47
2022-09-23T23:05:00.882Z,1.20
2022-09-23T23:07:27.230Z,1.55
2022-09-23T23:09:53.907Z,1.85
2022-09-23T23:12:21.027Z,2.20
2022-09-23T23:14:47.923Z,1.60
2022-09-23T23:17:14.321Z,1.50
2022-09-23T23:19:40.623Z,1.42
2022-09-23T23:22:06.917Z,2.05
2022-09-23T23:24:33.556Z,2.97
2022-09-23T23:26:59.865Z,2.05
2022-09-23T23:29:26.156Z,1.42
2022-09-23T23:31:52.617Z,4.13
2022-09-23T23:34:20.376Z,1.58
2022-09-23T23:36:47.923Z,2.03
2022-09-23T23:39:14.356Z,1.33
2022-09-23T23:41:41.533Z,1.40
2022-09-23T23:44:08.357Z,1.45
2022-09-23T23:46:37.284Z,3.72
2022-09-23T23:49:04.186Z,1.65
2022-09-23T23:51:30.491Z,1.65
2022-09-23T23:53:58.726Z,2.17
2022-09-23T23:56:25.431Z,3.70
2022-09-23T23:58:55.653Z,1.60
